Terminal Aerodrome Forecast
Issued by NWS

Current Version | Previous Version | Graphics & Text | Print | Product List | Glossary On
Versions: 1 2 3 4 5 6 7 8 9 10 11 12 13 14 15 16 17 18 19 20 21 22 23 24 25 26
000
FTUS41 KILN 250539
TAFLUK
TAF
KLUK 250539Z 2506/2606 21010KT P6SM SCT015 OVC050
     FM251000 25016G32KT P6SM VCSH BKN008 OVC015
     FM251200 26015G20KT P6SM SCT008 BKN025
     FM251500 26012G17KT P6SM SCT022 SCT250
     FM251700 25011KT P6SM SCT250
     FM252200 28005KT P6SM SKC=

USA.gov is the U.S. government's official web portal to all federal, state and local government web resources and services.